createdAt,value
2019-02-09T00:02:06.853Z,0.80
2019-02-09T00:04:37.229Z,1.00
2019-02-09T00:07:07.629Z,0.88
2019-02-09T00:09:37.885Z,0.75
2019-02-09T00:12:08.202Z,1.15
2019-02-09T00:14:38.393Z,1.12
2019-02-09T00:17:08.558Z,1.20
2019-02-09T00:19:38.763Z,2.37
2019-02-09T00:22:09.366Z,2.40
2019-02-09T00:24:39.612Z,2.40
2019-02-09T00:27:09.841Z,3.37
2019-02-09T00:29:46.060Z,2.90
2019-02-09T00:32:11.952Z,4.20
2019-02-09T00:34:42.671Z,1.67
2019-02-09T00:37:12.938Z,1.00
2019-02-09T00:39:43.640Z,1.00
2019-02-09T00:42:13.893Z,1.17
2019-02-09T00:44:44.204Z,1.17
2019-02-09T00:47:14.348Z,1.07
2019-02-09T00:49:44.540Z,1.27
2019-02-09T00:52:17.414Z,1.30
2019-02-09T00:54:47.702Z,1.17
2019-02-09T00:57:17.972Z,1.60
2019-02-09T00:59:53.962Z,2.40
2019-02-09T01:02:20.113Z,2.30
2019-02-09T01:04:50.421Z,1.60
2019-02-09T01:07:20.781Z,1.65
2019-02-09T01:09:50.951Z,1.22
2019-02-09T01:12:21.263Z,1.45
2019-02-09T01:14:51.394Z,1.45
2019-02-09T01:17:21.584Z,1.42
2019-02-09T01:19:52.758Z,1.72
2019-02-09T01:22:23.005Z,4.12
2019-02-09T01:24:53.741Z,2.70
2019-02-09T01:27:24.200Z,1.95
2019-02-09T01:30:01.908Z,1.90
2019-02-09T01:32:26.375Z,1.67
2019-02-09T01:34:56.608Z,2.27
2019-02-09T01:37:27.606Z,1.80
2019-02-09T01:39:57.768Z,1.27
2019-02-09T01:42:27.968Z,1.47
2019-02-09T01:44:58.200Z,1.70
2019-02-09T01:47:28.493Z,1.70
2019-02-09T01:49:58.736Z,1.90
2019-02-09T01:52:29.024Z,1.40
2019-02-09T01:54:59.233Z,1.22
2019-02-09T01:57:29.376Z,1.20
2019-02-09T01:59:59.540Z,1.50
2019-02-09T02:02:29.866Z,1.25
2019-02-09T02:05:00.938Z,1.20
2019-02-09T02:07:31.745Z,1.32
2019-02-09T02:10:01.981Z,1.40
2019-02-09T02:12:32.178Z,1.50
2019-02-09T02:15:02.484Z,1.60
2019-02-09T02:17:32.812Z,1.57
2019-02-09T02:20:04.625Z,1.30
2019-02-09T02:22:35.126Z,1.25
2019-02-09T02:25:07.746Z,1.35
2019-02-09T02:27:37.928Z,1.17
2019-02-09T02:30:21.645Z,1.32
2019-02-09T02:32:43.084Z,1.57
2019-02-09T02:35:13.504Z,1.67
2019-02-09T02:37:43.692Z,1.80
2019-02-09T02:40:23.184Z,1.40
2019-02-09T02:42:53.523Z,1.50
2019-02-09T02:45:25.466Z,1.70
2019-02-09T02:47:55.726Z,1.90
2019-02-09T02:50:27.168Z,2.10
2019-02-09T02:52:57.370Z,2.40
2019-02-09T02:55:29.576Z,2.35
2019-02-09T02:58:01.384Z,2.02
2019-02-09T03:00:33.208Z,2.27
2019-02-09T03:03:03.644Z,2.00
2019-02-09T03:05:33.951Z,1.90
2019-02-09T03:08:05.690Z,1.42
2019-02-09T03:10:35.925Z,1.70
2019-02-09T03:13:06.112Z,1.37
2019-02-09T03:15:36.709Z,1.47
2019-02-09T03:18:06.962Z,1.30
2019-02-09T03:20:37.130Z,1.37
2019-02-09T03:23:07.323Z,1.50
2019-02-09T03:25:37.649Z,1.30
2019-02-09T03:28:07.847Z,1.20
2019-02-09T03:30:47.721Z,1.20
2019-02-09T03:33:09.996Z,1.10
2019-02-09T03:35:40.253Z,1.10
2019-02-09T03:38:10.443Z,0.95
2019-02-09T03:40:40.604Z,1.12
2019-02-09T03:43:10.788Z,1.17
2019-02-09T03:45:40.952Z,1.35
2019-02-09T03:48:12.622Z,1.02
2019-02-09T03:50:42.959Z,1.15
2019-02-09T03:53:13.251Z,1.25
2019-02-09T03:55:43.592Z,1.32
2019-02-09T03:58:14.988Z,1.17
2019-02-09T04:00:45.321Z,1.40
2019-02-09T04:03:15.536Z,1.17
2019-02-09T04:05:45.704Z,1.05
2019-02-09T04:08:16.014Z,1.10
2019-02-09T04:10:46.394Z,1.30
2019-02-09T04:13:16.650Z,1.22
2019-02-09T04:15:47.390Z,1.40
2019-02-09T04:18:17.654Z,1.27
2019-02-09T04:20:47.930Z,2.37
2019-02-09T04:23:18.191Z,1.10
2019-02-09T04:25:48.357Z,1.27
2019-02-09T04:28:18.721Z,1.30
2019-02-09T04:30:48.985Z,1.50
2019-02-09T04:33:19.195Z,1.55
2019-02-09T04:35:49.368Z,1.57
2019-02-09T04:38:19.561Z,1.32
2019-02-09T04:40:49.817Z,1.62
2019-02-09T04:43:19.982Z,1.50
2019-02-09T04:45:50.168Z,1.90
2019-02-09T04:48:20.346Z,2.30
2019-02-09T04:50:50.546Z,1.55
2019-02-09T04:53:20.818Z,1.67
2019-02-09T04:55:51.008Z,1.90
2019-02-09T04:58:21.274Z,1.52
2019-02-09T05:00:51.738Z,1.77
2019-02-09T05:03:22.021Z,1.60
2019-02-09T05:05:52.201Z,1.42
2019-02-09T05:08:32.188Z,1.70
2019-02-09T05:11:02.495Z,1.70
2019-02-09T05:13:32.744Z,1.62
2019-02-09T05:16:03.050Z,1.90
2019-02-09T05:18:33.795Z,1.90
2019-02-09T05:21:04.157Z,1.60
2019-02-09T05:23:34.325Z,1.60
2019-02-09T05:26:04.826Z,1.45
2019-02-09T05:28:35.005Z,1.42
2019-02-09T05:31:05.442Z,1.47
2019-02-09T05:33:35.681Z,1.75
2019-02-09T05:36:05.951Z,1.90
2019-02-09T05:38:36.290Z,1.80
2019-02-09T05:41:06.489Z,1.70
2019-02-09T05:43:36.665Z,1.75
2019-02-09T05:46:07.234Z,2.85
2019-02-09T05:48:37.369Z,2.50
2019-02-09T05:51:07.694Z,1.20
2019-02-09T05:53:37.797Z,1.50
2019-02-09T05:56:08.135Z,1.17
2019-02-09T05:58:38.302Z,0.82
2019-02-09T06:01:08.890Z,0.90
2019-02-09T06:03:39.077Z,1.07
2019-02-09T06:06:09.533Z,1.10
2019-02-09T06:08:39.798Z,1.05
2019-02-09T06:11:11.521Z,1.10
2019-02-09T06:13:41.992Z,0.90
2019-02-09T06:16:12.249Z,0.98
2019-02-09T06:18:42.415Z,1.00
2019-02-09T06:21:12.607Z,1.20
2019-02-09T06:23:42.777Z,1.40
2019-02-09T06:26:13.242Z,0.90
2019-02-09T06:28:44.236Z,0.90
2019-02-09T06:31:14.497Z,1.10
2019-02-09T06:33:44.773Z,1.10
2019-02-09T06:36:14.955Z,1.20
2019-02-09T06:38:45.125Z,1.07
2019-02-09T06:41:15.388Z,1.17
2019-02-09T06:43:45.631Z,1.40
2019-02-09T06:46:15.951Z,1.17
2019-02-09T06:48:46.090Z,1.37
2019-02-09T06:51:16.363Z,1.32
2019-02-09T06:53:46.627Z,1.20
2019-02-09T06:56:17.958Z,1.15
2019-02-09T06:58:48.421Z,1.20
2019-02-09T07:01:18.685Z,1.40
2019-02-09T07:03:48.857Z,1.12
2019-02-09T07:06:19.146Z,1.20
2019-02-09T07:08:49.312Z,1.27
2019-02-09T07:11:19.615Z,1.35
2019-02-09T07:13:49.881Z,1.27
2019-02-09T07:16:20.342Z,1.30
2019-02-09T07:18:50.500Z,1.15
2019-02-09T07:21:20.937Z,1.17
2019-02-09T07:23:51.305Z,1.50
2019-02-09T07:26:22.298Z,2.60
2019-02-09T07:28:52.521Z,1.50
2019-02-09T07:31:22.704Z,1.20
2019-02-09T07:33:53.096Z,1.45
2019-02-09T07:36:24.086Z,1.60
2019-02-09T07:38:54.259Z,1.50
2019-02-09T07:41:24.656Z,1.32
2019-02-09T07:43:54.923Z,1.10
2019-02-09T07:46:25.182Z,1.40
2019-02-09T07:48:55.368Z,1.35
2019-02-09T07:51:25.542Z,1.70
2019-02-09T07:53:55.718Z,1.67
2019-02-09T07:56:26.668Z,1.12
2019-02-09T07:58:56.832Z,1.50
2019-02-09T08:01:27.124Z,1.20
2019-02-09T08:03:57.389Z,1.20
2019-02-09T08:06:27.630Z,1.40
2019-02-09T08:08:58.069Z,1.10
2019-02-09T08:11:28.432Z,1.10
2019-02-09T08:13:58.796Z,1.00
2019-02-09T08:16:29.654Z,1.10
2019-02-09T08:19:00.041Z,0.90
2019-02-09T08:21:32.216Z,1.10
2019-02-09T08:24:03.128Z,1.15
2019-02-09T08:26:33.670Z,1.30
2019-02-09T08:29:04.210Z,1.22
2019-02-09T08:31:34.485Z,1.37
2019-02-09T08:34:04.982Z,0.90
2019-02-09T08:36:35.432Z,1.50
2019-02-09T08:39:07.504Z,1.30
2019-02-09T08:41:38.160Z,1.50
2019-02-09T08:44:09.325Z,2.08
2019-02-09T08:46:39.496Z,1.42
2019-02-09T08:49:09.880Z,1.45
2019-02-09T08:51:40.102Z,1.65
2019-02-09T08:54:11.074Z,1.30
2019-02-09T08:56:41.113Z,1.90
2019-02-09T08:59:11.321Z,1.47
2019-02-09T09:01:43.517Z,1.40
2019-02-09T09:04:13.679Z,1.40
2019-02-09T09:06:43.941Z,1.57
2019-02-09T09:09:14.120Z,1.57
2019-02-09T09:11:44.305Z,2.00
2019-02-09T09:14:14.596Z,1.95
2019-02-09T09:16:45.344Z,1.80
2019-02-09T09:19:15.535Z,1.70
2019-02-09T09:21:45.694Z,2.00
2019-02-09T09:24:15.882Z,2.00
2019-02-09T09:26:46.206Z,1.90
2019-02-09T09:29:16.394Z,1.87
2019-02-09T09:31:46.561Z,1.65
2019-02-09T09:34:16.809Z,1.77
2019-02-09T09:36:47.181Z,1.55
2019-02-09T09:39:17.517Z,1.80
2019-02-09T09:41:47.882Z,1.92
2019-02-09T09:44:18.144Z,1.98
2019-02-09T09:46:48.505Z,1.60
2019-02-09T09:49:21.278Z,2.10
2019-02-09T09:51:51.593Z,1.80
2019-02-09T09:54:21.782Z,1.72
2019-02-09T09:56:52.357Z,1.95
2019-02-09T09:59:22.649Z,1.60
2019-02-09T10:01:53.338Z,2.00
2019-02-09T10:04:23.629Z,1.60
2019-02-09T10:06:53.870Z,1.30
2019-02-09T10:09:24.164Z,2.05
2019-02-09T10:11:54.337Z,1.50
2019-02-09T10:14:24.639Z,1.40
2019-02-09T10:16:54.876Z,1.77
2019-02-09T10:19:25.263Z,1.72
2019-02-09T10:21:55.533Z,1.87
2019-02-09T10:24:25.724Z,1.80
2019-02-09T10:26:55.952Z,1.72
2019-02-09T10:29:26.618Z,1.40
2019-02-09T10:31:56.789Z,1.60
2019-02-09T10:34:27.686Z,1.60
2019-02-09T10:36:58.160Z,1.67
2019-02-09T10:39:28.358Z,1.82
2019-02-09T10:41:58.604Z,1.90
2019-02-09T10:44:28.801Z,2.00
2019-02-09T10:46:59.273Z,1.70
2019-02-09T10:49:29.544Z,1.70
2019-02-09T10:51:59.893Z,1.80
2019-02-09T10:54:30.259Z,1.72
2019-02-09T10:57:00.541Z,1.60
2019-02-09T10:59:30.938Z,1.30
2019-02-09T11:02:01.281Z,1.35
2019-02-09T11:04:31.794Z,1.30
2019-02-09T11:07:01.917Z,1.67
2019-02-09T11:09:32.294Z,1.35
2019-02-09T11:12:02.522Z,1.20
2019-02-09T11:14:32.885Z,1.35
2019-02-09T11:17:03.121Z,2.20
2019-02-09T11:19:33.317Z,1.60
2019-02-09T11:22:04.026Z,2.02
2019-02-09T11:24:34.475Z,3.47
2019-02-09T11:27:04.662Z,2.40
2019-02-09T11:29:35.035Z,3.75
2019-02-09T11:32:05.278Z,2.27
2019-02-09T11:34:35.613Z,1.72
2019-02-09T11:37:06.022Z,2.10
2019-02-09T11:39:36.333Z,1.80
2019-02-09T11:42:06.619Z,1.37
2019-02-09T11:44:41.252Z,1.72
2019-02-09T11:47:08.740Z,2.47
2019-02-09T11:49:39.144Z,1.77
2019-02-09T11:52:09.677Z,1.70
2019-02-09T11:54:39.918Z,2.00
2019-02-09T11:57:10.089Z,1.67
2019-02-09T11:59:40.421Z,1.50
2019-02-09T12:02:11.028Z,1.75
2019-02-09T12:04:41.377Z,1.57
2019-02-09T12:07:11.636Z,1.40
2019-02-09T12:09:41.897Z,1.40
2019-02-09T12:12:12.162Z,2.30
2019-02-09T12:14:42.335Z,1.80
2019-02-09T12:17:12.622Z,1.90
2019-02-09T12:19:43.092Z,1.65
2019-02-09T12:22:13.472Z,2.15
2019-02-09T12:24:43.567Z,1.42
2019-02-09T12:27:13.744Z,1.80
2019-02-09T12:29:43.980Z,1.75
2019-02-09T12:32:14.446Z,1.55
2019-02-09T12:34:44.628Z,2.05
2019-02-09T12:37:14.820Z,1.55
2019-02-09T12:39:45.016Z,1.90
2019-02-09T12:42:15.232Z,3.20
2019-02-09T12:44:45.800Z,2.10
2019-02-09T12:47:16.074Z,1.60
2019-02-09T12:49:46.245Z,1.90
2019-02-09T12:52:16.446Z,2.00
2019-02-09T12:54:46.775Z,1.60
2019-02-09T12:57:16.962Z,1.70
2019-02-09T12:59:47.138Z,1.92
2019-02-09T13:02:17.325Z,1.70
2019-02-09T13:04:47.513Z,2.15
2019-02-09T13:07:17.809Z,1.80
2019-02-09T13:09:47.980Z,2.10
2019-02-09T13:12:18.178Z,2.12
2019-02-09T13:14:48.341Z,2.17
2019-02-09T13:17:18.533Z,1.80
2019-02-09T13:19:48.714Z,1.72
2019-02-09T13:22:19.291Z,2.77
2019-02-09T13:24:49.765Z,1.40
2019-02-09T13:27:20.265Z,1.25
2019-02-09T13:29:50.533Z,1.60
2019-02-09T13:32:20.866Z,1.60
2019-02-09T13:34:51.062Z,1.60
2019-02-09T13:37:21.542Z,1.32
2019-02-09T13:39:51.715Z,1.80
2019-02-09T13:42:22.283Z,1.42
2019-02-09T13:44:52.449Z,1.40
2019-02-09T13:47:22.647Z,1.85
2019-02-09T13:49:52.878Z,1.80
2019-02-09T13:52:24.277Z,1.32
2019-02-09T13:54:54.441Z,1.62
2019-02-09T13:57:24.632Z,1.27
2019-02-09T13:59:54.926Z,1.37
2019-02-09T14:02:25.104Z,1.70
2019-02-09T14:04:55.478Z,1.27
2019-02-09T14:07:25.878Z,1.65
2019-02-09T14:09:56.054Z,1.62
2019-02-09T14:12:26.326Z,1.47
2019-02-09T14:14:56.514Z,1.70
2019-02-09T14:17:26.726Z,1.70
2019-02-09T14:19:57.114Z,1.70
2019-02-09T14:22:27.410Z,1.37
2019-02-09T14:24:57.581Z,1.72
2019-02-09T14:27:28.068Z,1.67
2019-02-09T14:29:58.240Z,1.42
2019-02-09T14:32:28.601Z,1.17
2019-02-09T14:34:58.767Z,1.42
2019-02-09T14:37:28.958Z,1.10
2019-02-09T14:39:59.327Z,1.67
2019-02-09T14:42:29.595Z,1.40
2019-02-09T14:44:59.829Z,1.27
2019-02-09T14:47:30.014Z,1.20
2019-02-09T14:50:00.272Z,1.50
2019-02-09T14:52:30.643Z,1.17
2019-02-09T14:55:00.810Z,1.37
2019-02-09T14:57:31.006Z,1.50
2019-02-09T15:00:11.341Z,1.72
2019-02-09T15:02:41.542Z,1.50
2019-02-09T15:05:12.153Z,1.40
2019-02-09T15:07:42.352Z,1.37
2019-02-09T15:10:15.466Z,1.25
2019-02-09T15:12:45.832Z,1.25
2019-02-09T15:15:38.037Z,1.10
2019-02-09T15:18:10.175Z,1.70
2019-02-09T15:20:46.836Z,1.50
2019-02-09T15:23:17.020Z,1.30
2019-02-09T15:25:48.986Z,0.98
2019-02-09T15:28:19.627Z,1.40
2019-02-09T15:30:49.966Z,1.32
2019-02-09T15:33:20.302Z,1.40
2019-02-09T15:35:50.637Z,1.05
2019-02-09T15:38:21.192Z,1.42
2019-02-09T15:40:51.596Z,1.37
2019-02-09T15:43:21.793Z,2.22
2019-02-09T15:45:52.047Z,1.65
2019-02-09T15:48:23.848Z,1.52
2019-02-09T15:50:54.085Z,1.15
2019-02-09T15:53:26.429Z,1.90
2019-02-09T15:55:56.774Z,1.70
2019-02-09T15:58:27.096Z,1.40
2019-02-09T16:00:57.345Z,1.40
2019-02-09T16:03:27.599Z,1.30
2019-02-09T16:05:57.770Z,1.75
2019-02-09T16:08:28.208Z,1.50
2019-02-09T16:10:58.497Z,1.30
2019-02-09T16:13:28.761Z,2.08
2019-02-09T16:15:58.949Z,1.50
2019-02-09T16:18:29.181Z,1.62
2019-02-09T16:20:59.353Z,2.00
2019-02-09T16:23:29.545Z,2.45
2019-02-09T16:25:59.722Z,1.80
2019-02-09T16:28:31.017Z,1.72
2019-02-09T16:31:01.160Z,2.65
2019-02-09T16:33:31.351Z,4.03
2019-02-09T16:36:01.746Z,3.05
2019-02-09T16:38:31.935Z,2.40
2019-02-09T16:41:02.096Z,3.40
2019-02-09T16:43:32.356Z,2.52
2019-02-09T16:46:02.771Z,2.83
2019-02-09T16:48:33.059Z,2.30
2019-02-09T16:51:03.304Z,2.98
2019-02-09T16:53:33.566Z,2.90
2019-02-09T16:56:04.020Z,2.72
2019-02-09T16:58:34.877Z,2.70
2019-02-09T17:01:05.473Z,3.87
2019-02-09T17:03:35.735Z,2.62
2019-02-09T17:06:06.041Z,2.65
2019-02-09T17:08:36.377Z,2.62
2019-02-09T17:11:06.694Z,2.40
2019-02-09T17:13:37.056Z,2.35
2019-02-09T17:16:07.299Z,2.00
2019-02-09T17:18:37.929Z,3.02
2019-02-09T17:21:10.510Z,2.50
2019-02-09T17:23:40.772Z,3.20
2019-02-09T17:26:11.148Z,2.62
2019-02-09T17:28:41.337Z,2.60
2019-02-09T17:31:11.522Z,2.22
2019-02-09T17:33:41.820Z,2.33
2019-02-09T17:36:11.995Z,2.20
2019-02-09T17:38:44.675Z,1.80
2019-02-09T17:41:15.034Z,2.00
2019-02-09T17:43:45.290Z,2.02
2019-02-09T17:46:15.632Z,2.33
2019-02-09T17:48:46.474Z,2.80
2019-02-09T17:51:18.073Z,2.12
2019-02-09T17:53:48.265Z,2.08
2019-02-09T17:56:18.560Z,3.05
2019-02-09T17:58:48.738Z,1.98
2019-02-09T18:01:18.956Z,1.77
2019-02-09T18:03:49.233Z,2.30
2019-02-09T18:06:21.318Z,2.85
2019-02-09T18:08:51.524Z,2.70
2019-02-09T18:11:21.944Z,2.55
2019-02-09T18:13:52.220Z,1.82
2019-02-09T18:16:22.369Z,2.30
2019-02-09T18:18:52.629Z,2.25
2019-02-09T18:21:22.873Z,2.92
2019-02-09T18:23:53.089Z,2.10
2019-02-09T18:26:23.291Z,2.00
2019-02-09T18:28:53.654Z,2.02
2019-02-09T18:31:23.854Z,2.00
2019-02-09T18:33:54.545Z,2.25
2019-02-09T18:36:24.988Z,2.15
2019-02-09T18:38:55.514Z,2.62
2019-02-09T18:41:25.698Z,2.35
2019-02-09T18:43:55.960Z,2.67
2019-02-09T18:46:32.388Z,2.02
2019-02-09T18:49:02.702Z,2.15
2019-02-09T18:51:32.833Z,2.75
2019-02-09T18:54:03.085Z,2.72
2019-02-09T18:56:33.274Z,2.65
2019-02-09T18:59:03.709Z,2.40
2019-02-09T19:01:33.881Z,2.33
2019-02-09T19:04:04.310Z,2.30
2019-02-09T19:06:34.477Z,2.50
2019-02-09T19:09:07.412Z,2.30
2019-02-09T19:11:37.689Z,2.60
2019-02-09T19:14:08.013Z,2.52
2019-02-09T19:16:38.728Z,2.95
2019-02-09T19:19:09.061Z,4.22
2019-02-09T19:21:39.385Z,2.62
2019-02-09T19:24:09.667Z,2.67
2019-02-09T19:26:39.824Z,3.62
2019-02-09T19:29:10.105Z,2.60
2019-02-09T19:31:40.291Z,2.42
2019-02-09T19:34:10.685Z,3.60
2019-02-09T19:36:40.932Z,3.67
2019-02-09T19:39:11.446Z,3.08
2019-02-09T19:41:42.121Z,2.80
2019-02-09T19:44:12.377Z,2.30
2019-02-09T19:46:42.640Z,2.30
2019-02-09T19:49:12.836Z,3.80
2019-02-09T19:51:43.081Z,3.10
2019-02-09T19:54:13.394Z,3.62
2019-02-09T19:56:45.653Z,3.42
2019-02-09T19:59:16.341Z,3.00
2019-02-09T20:01:48.051Z,2.83
2019-02-09T20:04:18.705Z,2.33
2019-02-09T20:06:49.257Z,2.08
2019-02-09T20:09:19.572Z,2.77
2019-02-09T20:11:49.821Z,2.20
2019-02-09T20:14:20.197Z,2.35
2019-02-09T20:16:50.380Z,2.42
2019-02-09T20:19:20.612Z,2.15
2019-02-09T20:21:51.896Z,2.72
2019-02-09T20:24:22.209Z,2.90
2019-02-09T20:26:52.406Z,3.60
2019-02-09T20:29:22.946Z,3.87
2019-02-09T20:31:53.481Z,3.40
2019-02-09T20:34:23.651Z,3.52
2019-02-09T20:36:53.946Z,2.98
2019-02-09T20:39:24.213Z,2.90
2019-02-09T20:41:58.158Z,2.67
2019-02-09T20:44:28.322Z,3.00
2019-02-09T20:46:58.513Z,2.20
2019-02-09T20:49:28.773Z,2.20
2019-02-09T20:51:58.965Z,2.22
2019-02-09T20:54:29.122Z,2.55
2019-02-09T20:56:59.443Z,2.47
2019-02-09T20:59:29.705Z,2.20
2019-02-09T21:01:59.990Z,2.30
2019-02-09T21:04:30.237Z,2.10
2019-02-09T21:07:00.433Z,2.35
2019-02-09T21:09:30.613Z,2.17
2019-02-09T21:12:01.614Z,2.40
2019-02-09T21:14:32.241Z,2.72
2019-02-09T21:17:02.805Z,2.33
2019-02-09T21:19:33.054Z,2.27
2019-02-09T21:22:09.598Z,2.10
2019-02-09T21:24:39.785Z,4.70
2019-02-09T21:27:10.273Z,2.12
2019-02-09T21:29:40.570Z,2.10
2019-02-09T21:32:10.770Z,1.95
2019-02-09T21:34:41.123Z,2.25
2019-02-09T21:37:11.603Z,2.15
2019-02-09T21:39:41.771Z,2.20
2019-02-09T21:42:12.876Z,2.20
2019-02-09T21:44:43.079Z,1.80
2019-02-09T21:47:14.131Z,2.12
2019-02-09T21:49:44.344Z,3.12
2019-02-09T21:52:14.619Z,2.47
2019-02-09T21:54:44.774Z,2.75
2019-02-09T21:57:14.974Z,2.60
2019-02-09T21:59:45.469Z,2.37
2019-02-09T22:02:16.783Z,2.85
2019-02-09T22:04:46.958Z,2.67
2019-02-09T22:07:17.166Z,2.92
2019-02-09T22:09:47.423Z,2.90
2019-02-09T22:12:17.955Z,2.60
2019-02-09T22:14:48.530Z,2.30
2019-02-09T22:17:18.821Z,2.37
2019-02-09T22:19:49.058Z,2.33
2019-02-09T22:22:20.259Z,2.75
2019-02-09T22:24:50.445Z,2.70
2019-02-09T22:27:20.788Z,2.70
2019-02-09T22:29:51.049Z,2.60
2019-02-09T22:32:21.463Z,2.47
2019-02-09T22:34:51.713Z,2.20
2019-02-09T22:37:21.935Z,2.72
2019-02-09T22:39:52.277Z,3.17
2019-02-09T22:42:22.562Z,2.90
2019-02-09T22:44:52.741Z,2.70
2019-02-09T22:47:23.023Z,2.52
2019-02-09T22:49:53.300Z,2.90
2019-02-09T22:52:23.590Z,2.72
2019-02-09T22:54:53.837Z,3.35
2019-02-09T22:57:24.170Z,3.40
2019-02-09T22:59:54.479Z,3.33
2019-02-09T23:02:24.725Z,3.20
2019-02-09T23:04:55.543Z,4.28
2019-02-09T23:07:25.805Z,3.58
2019-02-09T23:09:57.149Z,3.87
2019-02-09T23:12:27.322Z,3.35
2019-02-09T23:14:57.593Z,3.72
2019-02-09T23:17:27.841Z,3.65
2019-02-09T23:19:59.612Z,4.33
2019-02-09T23:22:29.813Z,3.87
2019-02-09T23:24:59.982Z,3.98
2019-02-09T23:27:30.172Z,4.08
2019-02-09T23:30:00.346Z,5.80
2019-02-09T23:32:30.614Z,6.37
2019-02-09T23:35:00.785Z,4.90
2019-02-09T23:37:31.084Z,4.87
2019-02-09T23:40:01.246Z,4.70
2019-02-09T23:42:31.439Z,5.45
2019-02-09T23:45:01.606Z,5.67
2019-02-09T23:47:31.821Z,6.30
2019-02-09T23:50:02.164Z,5.70
2019-02-09T23:52:32.361Z,4.60
2019-02-09T23:55:02.505Z,4.85
2019-02-09T23:57:32.705Z,5.20
